Pringle, SD (57773)

11:36 AM MDT on April 30, 2017 (GMT -0600)
Hay Creek Road | | Change Station

Elev 5325 ft 43.70 °N, 103.67 °W | Updated 1 second ago

Clear
Clear
48.4 °F
Feels Like 48 °F
N
3.4
Wind Variable Wind from South
Gusts 4.9 mph

Today
High -- | Low -- °F
--% Chance of Precip.
Yesterday
High -- | Low -- °F
Precip. -- in
Pressure 30.01 in
Visibility 10.0 miles
Clouds Clear
Windchill 48 °F
Dew Point 21 °F
Humidity 33%
Rainfall 0.00 in
Snow Depth Not available.
5:47 AM 7:55 PM
Waxing Crescent, 24% visible
METAR KCUT 301653Z AUTO 04008KT 350V100 10SM CLR 07/M09 A2999 RMK AO2 SLP160 T00671094
Pressure 30.01 in
Visibility 10.0 miles
Clouds Clear
Windchill 48 °F
Dew Point 21 °F
Humidity 33%
Rainfall 0.00 in
Snow Depth Not available.
5:47 AM 7:55 PM
Waxing Crescent, 24% visible
METAR KCUT 301653Z AUTO 04008KT 350V100 10SM CLR 07/M09 A2999 RMK AO2 SLP160 T00671094

Get Severe Weather Alerts

Thanks for signing up!

Be on the lookout for a verification email in your inbox.

You'll start receiving the daily forecast at 8 AM.

×

10-Day Weather Forecast

Almanac

Astronomy

Apr. 30, 2017 Rise Set
Actual Time
Civil Twilight
Nautical Twilight
Astronomical Twilight
Moon
Length of Visible Light
Length of Day
Tomorrow will be .
, % of the Moon is Illuminated

Today's Extremes

State Highs State Lows

Community

WunderPhotos

WunderBlog® & News

Nearby

Air Quality

  Air Quality AQ Index Pollutant
Not available.

Snow Depth

Station Depth Elevation

Earthquake Activity

City Distance Mag. Time & Date
Minimum magnitude displayed is 2.5.

Coastal Water Temperatures

Place Temperature

Stations

Nearby Weather Stations

Station Location Temp. Windchill Dew Point Humidity Wind Precip. Elev Updated Type
                   

Watches & Warnings

There are currently no watches in effect.